METAR Data
IDs: Format: Raw Decoded Include TAF

Data at: 1716 UTC 21 Sep 2018

KSAT 211651Z 17013G19KT 10SM FEW022 BKN027 OVC180 28/23 A2998 RMK AO2 SLP132 T02780228
KSAT 211551Z 17014G18KT 10SM SCT019 BKN025 BKN032 OVC170 28/23 A2998 RMK AO2 SLP132 T02780233
KSAT 211504Z 16009KT 10SM BKN017 BKN035 BKN170 OVC250 27/23 A2996 RMK AO2 T02670233
KSAT 211451Z 16011KT 10SM SCT015 BKN060 BKN170 OVC250 27/23 A2996 RMK AO2 SLP127 T02670233 51013
KSAT 211441Z 16010KT 10SM BKN015 OVC170 27/23 A2996 RMK AO2 T02670233
KSAT 211351Z 17011KT 10SM BKN012 BKN030 OVC160 26/23 A2996 RMK AO2 SLP127 T02610233
KSAT 211251Z 16009KT 10SM BKN011 BKN024 OVC160 26/23 A2994 RMK AO2 SLP121 T02560233
KSAT 211213Z 15007KT 10SM BKN013 OVC021 26/23 A2993 RMK AO2 T02560233
KSAT 211151Z 15010KT 10SM BKN015 BKN140 BKN250 26/23 A2992 RMK AO2 SLP115 70056 T02560233 10261 20256 56000
KSAT 211051Z 16009KT 10SM FEW013 BKN026 BKN170 OVC240 26/23 A2992 RMK AO2 SLP114 T02560233
KSAT 211021Z 15009KT 10SM FEW013 BKN026 BKN170 OVC240 26/23 A2992 RMK AO2 T02560233
KSAT 210951Z 17008KT 10SM BKN010 BKN024 OVC160 26/23 A2992 RMK AO2 SLP113 T02560233
KSAT 210851Z 16009KT 10SM BKN013 BKN040 OVC210 26/24 A2992 RMK AO2 SLP114 T02560239 58006
KSAT 210751Z 15012KT 10SM BKN010 BKN038 OVC150 26/24 A2993 RMK AO2 SLP118 T02560239
KSAT 210651Z 15010KT 10SM BKN010 OVC035 26/24 A2994 RMK AO2 SLP121 T02560239
KSAT 210551Z 14009KT 10SM FEW007 BKN014 OVC055 26/24 A2994 RMK AO2 SLP120 60004 T02560239 10256 20244 403060233 50000
KSAT 210458Z 13009KT 10SM FEW007 BKN014 OVC020 26/24 A2995 RMK AO2 T02560239
KSAT 210451Z 13008KT 10SM BKN007 BKN014 OVC033 26/24 A2995 RMK AO2 SLP124 T02560239
KSAT 210418Z 11006KT 10SM BKN007 BKN014 OVC028 25/24 A2996 RMK AO2 T02500239
KSAT 210351Z 10005KT 10SM BKN012 BKN028 BKN110 OVC220 25/24 A2995 RMK AO2 SLP123 T02500239
KSAT 210344Z 11006KT 10SM BKN012 BKN028 BKN110 OVC220 25/24 A2995 RMK AO2 T02500239
KSAT 210335Z 12005KT 10SM FEW009 BKN021 BKN060 OVC210 25/24 A2995 RMK AO2 T02500239
KSAT 210309Z COR 11007KT 10SM FEW009 SCT027 BKN060 OVC210 25/24 A2994 RMK AO2 LTG DSNT N-NE T02500239
KSAT 210251Z 11006KT 10SM FEW010 BKN027 OVC210 25/24 A2994 RMK AO2 LTG DSNT NE AND E SLP122 CB OCNL LTGCG DSNT NE 60004 T02500239 53016
KSAT 210240Z 12006KT 10SM FEW010 BKN027 OVC210 25/24 A2994 RMK AO2 LTG DSNT NE AND E CB OCNL LTGCG DSNT NE AND E T02500239
KSAT 210151Z 12007KT 10SM BKN013 BKN024 OVC037 24/23 A2992 RMK AO2 LTG DSNT E RAB01E33 SLP114 P0004 T02440228
KSAT 210051Z 12008KT 10SM BKN036 BKN075 OVC250 26/23 A2990 RMK AO2 SLP107 T02560228
KSAT 202351Z 11010KT 10SM FEW025 BKN070 OVC250 26/23 A2989 RMK AO2 RAB05E41 SLP105 P0004 60004 T02560233 10306 20256 53005
KSAT 202251Z 11014KT 10SM FEW026 BKN090 BKN250 27/22 A2988 RMK AO2 SLP101 T02720222
KSAT 202151Z 10009KT 10SM FEW028 SCT085 BKN250 28/22 A2988 RMK AO2 RAB2054E05 SLP101 CB DSNT N-NE P0000 T02780217
KSAT 202051Z 22007KT 10SM SCT040TCU BKN100 OVC250 29/23 A2988 RMK AO2 LTG DSNT E RAE10 SLP099 CB SHRA DSNT NE-E TCU VC S P0000 60000 T02940228 56028
KSAT 201951Z 21011KT 9SM -RA BKN040 BKN090 OVC250 28/22 A2991 RMK AO2 RAB44 SLP108 P0000 T02780222
KSAT 201851Z 15012KT 10SM SCT033 SCT150 BKN250 30/23 A2994 RMK AO2 LTG DSNT NE RAE1757 SLP118 CB DSNT N AND NE P0000 T03000228
KSAT 201751Z 19005KT 10SM -RA SCT021 BKN070 BKN150 BKN250 26/22 A2996 RMK AO2 RAB35 SLP128 P0000 60048 T02610222 10289 20233 58003
KSAT 201651Z 17011KT 10SM BKN021 BKN150 BKN250 28/23 A2998 RMK AO2 SLP134 TCU DSNT NE AND W T02830228
KSAT 201635Z 16011KT 10SM SCT018 BKN025 BKN150 29/24 A2998 RMK AO2 T02890239
KSAT 201551Z 16009KT 10SM BKN012 OVC150 27/24 A2998 RMK AO2 RAE14 SLP135 P0000 T02720239
KSAT 201507Z 14008KT 10SM -RA BKN010 BKN019 OVC150 26/24 A2998 RMK AO2 LTG DSNT NW P0000 T02610239
KSAT 201451Z 14006KT 10SM -RA SCT008 BKN018 OVC150 26/24 A2997 RMK AO2 SLP131 P0000 60048 T02560239 51011
KSAT 201426Z 14005KT 10SM -RA SCT008 BKN018 OVC150 26/24 A2997 RMK AO2 P0000 T02560239
KSAT 201416Z 14008KT 10SM -RA BKN016 BKN070 OVC150 26/23 A2997 RMK AO2 P0000 T02560233
KSAT 201351Z 14004KT 10SM -RA FEW016 SCT060 BKN140 OVC240 25/23 A2996 RMK AO2 PK WND 15030/1252 TSE48 SLP128 TS MOV N P0038 T02500228
KSAT 201338Z 16004KT 10SM -TSRA FEW016 BKN060 BKN120 OVC250 24/22 A2996 RMK AO2 PK WND 15030/1252 LTG DSNT N OCNL LTGICCG TS DSNT N-NE MOV N P0038 T02440222
KSAT 201305Z 14006G18KT 3SM R13R/2200VP6000FT -TSRA SCT009 BKN021CB OVC070 24/21 A2995 RMK AO2 PK WND 15030/1252 OCNL LTGICCG TS AT AP MOV N P0038 T02390211
KSAT 201251Z 15015KT 1/2SM R13R/3000VP6000FT +TSRA FG FEW008CB BKN028 OVC095 24/23 A2996 RMK AO2 LTG DSNT SE RAB27 SLP126 FRQ LTGICCG TS AT AP MOV N P0010 T02440228
KSAT 201243Z 18012KT 2SM -TSRA BR BKN009 BKN024 OVC110 25/23 A2995 RMK AO2 LTG DSNT SE RAB27 FRQ LTGICCG TS SE-S MOV N P0001 T02500233
KSAT 201235Z 17006KT 8SM -TSRA BKN009 BKN024 OVC110 26/24 A2994 RMK AO2 LTG DSNT SE AND S RAB27 OCNL LTGICCG TS SE-S MOV N P0000 T02560239
KSAT 201231Z 17006KT 10SM -RA BKN009 BKN024 OVC110 26/23 A2994 RMK AO2 LTG DSNT SE AND S RAB27 CB OCNL LTGICCG DSNT SE-S MOV N P0000 T02560233
KSAT 201151Z 15009KT 10SM SCT008 BKN014 BKN160 BKN250 26/23 A2994 RMK AO2 LTG DSNT S SLP120 T02560233 10261 20250 55003
KSAT 201051Z 17009KT 10SM SCT008 BKN014 BKN190 BKN250 26/23 A2993 RMK AO2 SLP116 T02560233
KSAT 201044Z 17008KT 10SM SCT008 BKN014 BKN190 BKN250 26/23 A2993 RMK AO2 T02560233
KSAT 201004Z 16008KT 10SM SCT009 BKN016 BKN160 BKN250 25/23 A2993 RMK AO2 T02500233
KSAT 200951Z 16009KT 10SM BKN010 OVC023 26/23 A2994 RMK AO2 SLP119 T02560233
KSAT 200851Z 17008KT 10SM BKN011 BKN160 BKN250 26/23 A2995 RMK AO2 SLP121 T02560233 56007
KSAT 200751Z COR 15009KT 10SM BKN010 BKN250 26/23 A2996 RMK AO2 SLP124 T02560233
KSAT 200651Z 16009KT 10SM BKN012 BKN055 BKN250 26/23 A2996 RMK AO2 SLP127 T02560228
KSAT 200551Z 17008KT 10SM SCT055 BKN240 26/23 A2997 RMK AO2 SLP129 T02560228 10300 20256 403170244 51012